sensor_id;sensor_type;location;lat;lon;timestamp;P1;durP1;ratioP1;P2;durP2;ratioP2
40827;SDS011;26549;50.918;5.338;2022-12-05T00:03:54;47.92;;;22.65;;
40827;SDS011;26549;50.918;5.338;2022-12-05T00:06:23;52.15;;;25.65;;
40827;SDS011;26549;50.918;5.338;2022-12-05T00:08:50;44.20;;;21.58;;
40827;SDS011;26549;50.918;5.338;2022-12-05T00:11:17;47.50;;;23.33;;
40827;SDS011;26549;50.918;5.338;2022-12-05T00:13:45;49.55;;;24.35;;
40827;SDS011;26549;50.918;5.338;2022-12-05T00:16:12;48.40;;;23.30;;
40827;SDS011;26549;50.918;5.338;2022-12-05T00:18:39;53.47;;;23.45;;
40827;SDS011;26549;50.918;5.338;2022-12-05T00:21:06;50.47;;;24.42;;
40827;SDS011;26549;50.918;5.338;2022-12-05T00:23:36;45.08;;;23.58;;
40827;SDS011;26549;50.918;5.338;2022-12-05T00:26:02;50.78;;;25.02;;
40827;SDS011;26549;50.918;5.338;2022-12-05T00:28:30;46.72;;;24.98;;
40827;SDS011;26549;50.918;5.338;2022-12-05T00:30:56;53.13;;;23.63;;
40827;SDS011;26549;50.918;5.338;2022-12-05T00:33:25;49.35;;;21.58;;
40827;SDS011;26549;50.918;5.338;2022-12-05T00:35:51;50.33;;;22.77;;
40827;SDS011;26549;50.918;5.338;2022-12-05T00:38:17;52.97;;;25.50;;
40827;SDS011;26549;50.918;5.338;2022-12-05T00:40:43;55.10;;;24.65;;
40827;SDS011;26549;50.918;5.338;2022-12-05T00:43:09;46.45;;;22.70;;
40827;SDS011;26549;50.918;5.338;2022-12-05T00:45:35;44.83;;;23.17;;
40827;SDS011;26549;50.918;5.338;2022-12-05T00:48:01;58.28;;;26.98;;
40827;SDS011;26549;50.918;5.338;2022-12-05T00:50:27;47.15;;;23.10;;
40827;SDS011;26549;50.918;5.338;2022-12-05T00:52:53;50.55;;;23.80;;
40827;SDS011;26549;50.918;5.338;2022-12-05T00:55:19;44.35;;;21.70;;
40827;SDS011;26549;50.918;5.338;2022-12-05T00:57:44;51.15;;;25.50;;
40827;SDS011;26549;50.918;5.338;2022-12-05T01:00:10;44.33;;;21.33;;
40827;SDS011;26549;50.918;5.338;2022-12-05T01:02:36;39.70;;;21.90;;
40827;SDS011;26549;50.918;5.338;2022-12-05T01:05:02;47.20;;;23.02;;
40827;SDS011;26549;50.918;5.338;2022-12-05T01:07:28;42.58;;;22.27;;
40827;SDS011;26549;50.918;5.338;2022-12-05T01:09:54;48.75;;;23.83;;
40827;SDS011;26549;50.918;5.338;2022-12-05T01:12:19;45.42;;;21.40;;
40827;SDS011;26549;50.918;5.338;2022-12-05T01:14:45;54.50;;;22.95;;
40827;SDS011;26549;50.918;5.338;2022-12-05T01:17:11;45.63;;;22.98;;
40827;SDS011;26549;50.918;5.338;2022-12-05T01:19:37;55.08;;;25.98;;
40827;SDS011;26549;50.918;5.338;2022-12-05T01:22:04;44.50;;;20.02;;
40827;SDS011;26549;50.918;5.338;2022-12-05T01:24:30;45.38;;;21.38;;
40827;SDS011;26549;50.918;5.338;2022-12-05T01:26:56;50.67;;;23.92;;
40827;SDS011;26549;50.918;5.338;2022-12-05T01:29:22;49.70;;;23.33;;
40827;SDS011;26549;50.918;5.338;2022-12-05T01:31:49;44.50;;;21.92;;
40827;SDS011;26549;50.918;5.338;2022-12-05T01:34:16;41.78;;;21.67;;
40827;SDS011;26549;50.918;5.338;2022-12-05T01:36:43;44.47;;;23.27;;
40827;SDS011;26549;50.918;5.338;2022-12-05T01:39:10;45.70;;;21.35;;
40827;SDS011;26549;50.918;5.338;2022-12-05T01:41:39;47.42;;;22.83;;
40827;SDS011;26549;50.918;5.338;2022-12-05T01:44:59;43.22;;;20.35;;
40827;SDS011;26549;50.918;5.338;2022-12-05T01:46:53;49.65;;;23.45;;
40827;SDS011;26549;50.918;5.338;2022-12-05T01:51:57;45.33;;;22.98;;
40827;SDS011;26549;50.918;5.338;2022-12-05T01:54:30;49.72;;;22.55;;
40827;SDS011;26549;50.918;5.338;2022-12-05T01:56:59;48.30;;;21.63;;
40827;SDS011;26549;50.918;5.338;2022-12-05T01:59:27;45.25;;;23.10;;
40827;SDS011;26549;50.918;5.338;2022-12-05T02:01:57;43.35;;;22.63;;
40827;SDS011;26549;50.918;5.338;2022-12-05T02:04:23;45.15;;;21.75;;
40827;SDS011;26549;50.918;5.338;2022-12-05T02:06:48;41.05;;;21.92;;
40827;SDS011;26549;50.918;5.338;2022-12-05T02:09:14;51.30;;;22.92;;
40827;SDS011;26549;50.918;5.338;2022-12-05T02:11:46;46.78;;;23.10;;
40827;SDS011;26549;50.918;5.338;2022-12-05T02:17:03;44.35;;;20.70;;
40827;SDS011;26549;50.918;5.338;2022-12-05T02:25:50;47.50;;;24.13;;
40827;SDS011;26549;50.918;5.338;2022-12-05T02:31:47;44.85;;;19.98;;
40827;SDS011;26549;50.918;5.338;2022-12-05T02:37:26;45.72;;;21.95;;
40827;SDS011;26549;50.918;5.338;2022-12-05T02:40:09;43.65;;;21.95;;
40827;SDS011;26549;50.918;5.338;2022-12-05T02:42:50;43.55;;;19.85;;
40827;SDS011;26549;50.918;5.338;2022-12-05T02:45:26;43.63;;;19.65;;
40827;SDS011;26549;50.918;5.338;2022-12-05T02:47:56;46.30;;;23.90;;
40827;SDS011;26549;50.918;5.338;2022-12-05T02:50:27;49.92;;;24.23;;
40827;SDS011;26549;50.918;5.338;2022-12-05T02:52:59;51.22;;;22.95;;
40827;SDS011;26549;50.918;5.338;2022-12-05T02:55:29;46.55;;;23.42;;
40827;SDS011;26549;50.918;5.338;2022-12-05T02:57:57;45.13;;;20.33;;
40827;SDS011;26549;50.918;5.338;2022-12-05T03:00:25;39.40;;;20.40;;
40827;SDS011;26549;50.918;5.338;2022-12-05T03:02:52;44.70;;;20.80;;
40827;SDS011;26549;50.918;5.338;2022-12-05T03:05:39;41.70;;;20.70;;
40827;SDS011;26549;50.918;5.338;2022-12-05T03:08:27;43.10;;;19.83;;
40827;SDS011;26549;50.918;5.338;2022-12-05T03:10:56;42.42;;;20.00;;
40827;SDS011;26549;50.918;5.338;2022-12-05T03:13:26;48.72;;;22.27;;
40827;SDS011;26549;50.918;5.338;2022-12-05T03:16:03;45.03;;;22.20;;
40827;SDS011;26549;50.918;5.338;2022-12-05T03:18:39;42.50;;;19.40;;
40827;SDS011;26549;50.918;5.338;2022-12-05T03:21:36;46.70;;;21.80;;
40827;SDS011;26549;50.918;5.338;2022-12-05T03:24:08;44.42;;;21.20;;
40827;SDS011;26549;50.918;5.338;2022-12-05T03:32:41;48.20;;;21.58;;
40827;SDS011;26549;50.918;5.338;2022-12-05T03:34:57;38.45;;;18.88;;
40827;SDS011;26549;50.918;5.338;2022-12-05T03:40:10;46.90;;;24.60;;
40827;SDS011;26549;50.918;5.338;2022-12-05T03:43:12;45.85;;;22.05;;
40827;SDS011;26549;50.918;5.338;2022-12-05T03:45:48;44.20;;;21.17;;
40827;SDS011;26549;50.918;5.338;2022-12-05T03:51:02;62.25;;;25.60;;
40827;SDS011;26549;50.918;5.338;2022-12-05T03:53:33;48.55;;;23.27;;
40827;SDS011;26549;50.918;5.338;2022-12-05T03:56:29;52.03;;;23.90;;
40827;SDS011;26549;50.918;5.338;2022-12-05T03:59:06;59.38;;;22.77;;
40827;SDS011;26549;50.918;5.338;2022-12-05T04:01:40;53.33;;;22.65;;
40827;SDS011;26549;50.918;5.338;2022-12-05T04:04:11;49.53;;;22.75;;
40827;SDS011;26549;50.918;5.338;2022-12-05T04:06:41;42.38;;;22.02;;
40827;SDS011;26549;50.918;5.338;2022-12-05T04:09:12;52.85;;;22.88;;
40827;SDS011;26549;50.918;5.338;2022-12-05T04:11:42;53.67;;;23.98;;
40827;SDS011;26549;50.918;5.338;2022-12-05T04:14:21;52.88;;;23.77;;
40827;SDS011;26549;50.918;5.338;2022-12-05T04:20:03;54.72;;;24.90;;
40827;SDS011;26549;50.918;5.338;2022-12-05T04:22:42;54.72;;;22.70;;
40827;SDS011;26549;50.918;5.338;2022-12-05T04:25:10;60.65;;;23.42;;
40827;SDS011;26549;50.918;5.338;2022-12-05T04:30:37;50.20;;;23.90;;
40827;SDS011;26549;50.918;5.338;2022-12-05T04:33:09;46.67;;;22.00;;
40827;SDS011;26549;50.918;5.338;2022-12-05T04:35:40;50.15;;;22.45;;
40827;SDS011;26549;50.918;5.338;2022-12-05T04:40:54;50.55;;;22.35;;
40827;SDS011;26549;50.918;5.338;2022-12-05T04:43:32;47.17;;;23.63;;
40827;SDS011;26549;50.918;5.338;2022-12-05T04:46:01;48.67;;;22.75;;
40827;SDS011;26549;50.918;5.338;2022-12-05T04:48:31;43.22;;;21.23;;
40827;SDS011;26549;50.918;5.338;2022-12-05T04:51:01;40.92;;;20.25;;
40827;SDS011;26549;50.918;5.338;2022-12-05T04:53:30;50.22;;;20.88;;
40827;SDS011;26549;50.918;5.338;2022-12-05T04:55:57;40.67;;;21.00;;
40827;SDS011;26549;50.918;5.338;2022-12-05T04:58:26;45.63;;;21.13;;
40827;SDS011;26549;50.918;5.338;2022-12-05T05:01:09;48.85;;;21.23;;
40827;SDS011;26549;50.918;5.338;2022-12-05T05:03:43;41.78;;;20.08;;
40827;SDS011;26549;50.918;5.338;2022-12-05T05:06:16;38.83;;;21.58;;
40827;SDS011;26549;50.918;5.338;2022-12-05T05:08:50;45.42;;;21.80;;
40827;SDS011;26549;50.918;5.338;2022-12-05T05:11:22;43.15;;;19.40;;
40827;SDS011;26549;50.918;5.338;2022-12-05T05:13:49;46.95;;;21.35;;
40827;SDS011;26549;50.918;5.338;2022-12-05T05:16:17;42.53;;;18.88;;
40827;SDS011;26549;50.918;5.338;2022-12-05T05:18:48;37.25;;;18.90;;
40827;SDS011;26549;50.918;5.338;2022-12-05T05:23:52;39.08;;;20.77;;
40827;SDS011;26549;50.918;5.338;2022-12-05T05:26:19;45.28;;;19.70;;
40827;SDS011;26549;50.918;5.338;2022-12-05T05:28:46;39.42;;;20.00;;
40827;SDS011;26549;50.918;5.338;2022-12-05T05:31:13;35.75;;;19.33;;
40827;SDS011;26549;50.918;5.338;2022-12-05T05:33:39;36.65;;;19.52;;
40827;SDS011;26549;50.918;5.338;2022-12-05T05:36:06;32.50;;;20.98;;
40827;SDS011;26549;50.918;5.338;2022-12-05T05:38:37;34.45;;;19.08;;
40827;SDS011;26549;50.918;5.338;2022-12-05T05:41:04;35.60;;;19.08;;
40827;SDS011;26549;50.918;5.338;2022-12-05T05:43:35;32.20;;;18.30;;
40827;SDS011;26549;50.918;5.338;2022-12-05T05:46:02;34.55;;;18.10;;
40827;SDS011;26549;50.918;5.338;2022-12-05T05:48:29;31.25;;;17.20;;
40827;SDS011;26549;50.918;5.338;2022-12-05T05:50:57;32.47;;;17.15;;
40827;SDS011;26549;50.918;5.338;2022-12-05T05:53:24;32.38;;;17.42;;
40827;SDS011;26549;50.918;5.338;2022-12-05T05:55:50;29.95;;;16.60;;
40827;SDS011;26549;50.918;5.338;2022-12-05T05:58:16;29.70;;;15.77;;
40827;SDS011;26549;50.918;5.338;2022-12-05T06:00:42;29.13;;;16.05;;
40827;SDS011;26549;50.918;5.338;2022-12-05T06:03:08;29.17;;;15.55;;
40827;SDS011;26549;50.918;5.338;2022-12-05T06:05:33;25.90;;;14.73;;
40827;SDS011;26549;50.918;5.338;2022-12-05T06:07:59;30.42;;;16.10;;
40827;SDS011;26549;50.918;5.338;2022-12-05T06:10:26;30.13;;;18.20;;
40827;SDS011;26549;50.918;5.338;2022-12-05T06:12:53;31.63;;;18.35;;
40827;SDS011;26549;50.918;5.338;2022-12-05T06:15:19;28.13;;;16.40;;
40827;SDS011;26549;50.918;5.338;2022-12-05T06:17:45;30.25;;;18.33;;
40827;SDS011;26549;50.918;5.338;2022-12-05T06:20:11;27.20;;;15.98;;
40827;SDS011;26549;50.918;5.338;2022-12-05T06:22:36;27.00;;;16.10;;
40827;SDS011;26549;50.918;5.338;2022-12-05T06:25:02;31.08;;;16.95;;
40827;SDS011;26549;50.918;5.338;2022-12-05T06:27:28;25.08;;;14.60;;
40827;SDS011;26549;50.918;5.338;2022-12-05T06:29:55;26.33;;;15.05;;
40827;SDS011;26549;50.918;5.338;2022-12-05T06:32:21;29.17;;;16.10;;
40827;SDS011;26549;50.918;5.338;2022-12-05T06:34:47;26.70;;;15.15;;
40827;SDS011;26549;50.918;5.338;2022-12-05T06:37:13;28.80;;;15.45;;
40827;SDS011;26549;50.918;5.338;2022-12-05T06:39:38;31.27;;;16.05;;
40827;SDS011;26549;50.918;5.338;2022-12-05T06:42:04;28.42;;;17.95;;
40827;SDS011;26549;50.918;5.338;2022-12-05T06:44:30;26.05;;;16.23;;
40827;SDS011;26549;50.918;5.338;2022-12-05T06:46:56;27.52;;;15.35;;
40827;SDS011;26549;50.918;5.338;2022-12-05T06:49:23;26.42;;;16.27;;
40827;SDS011;26549;50.918;5.338;2022-12-05T06:51:56;26.10;;;15.15;;
40827;SDS011;26549;50.918;5.338;2022-12-05T06:54:23;24.77;;;16.05;;
40827;SDS011;26549;50.918;5.338;2022-12-05T06:56:48;27.08;;;15.70;;
40827;SDS011;26549;50.918;5.338;2022-12-05T06:59:14;30.27;;;15.40;;
40827;SDS011;26549;50.918;5.338;2022-12-05T07:01:40;24.80;;;15.00;;
40827;SDS011;26549;50.918;5.338;2022-12-05T07:04:09;26.00;;;15.43;;
40827;SDS011;26549;50.918;5.338;2022-12-05T07:06:44;22.80;;;14.40;;
40827;SDS011;26549;50.918;5.338;2022-12-05T07:09:10;25.33;;;14.30;;
40827;SDS011;26549;50.918;5.338;2022-12-05T07:11:37;27.63;;;15.25;;
40827;SDS011;26549;50.918;5.338;2022-12-05T07:14:03;29.73;;;15.35;;
40827;SDS011;26549;50.918;5.338;2022-12-05T07:16:29;28.38;;;14.98;;
40827;SDS011;26549;50.918;5.338;2022-12-05T07:18:55;29.85;;;15.52;;
40827;SDS011;26549;50.918;5.338;2022-12-05T07:21:22;28.15;;;14.80;;
40827;SDS011;26549;50.918;5.338;2022-12-05T07:23:48;25.38;;;15.88;;
40827;SDS011;26549;50.918;5.338;2022-12-05T07:26:17;28.63;;;17.08;;
40827;SDS011;26549;50.918;5.338;2022-12-05T07:28:45;24.30;;;14.25;;
40827;SDS011;26549;50.918;5.338;2022-12-05T07:31:12;26.55;;;15.77;;
40827;SDS011;26549;50.918;5.338;2022-12-05T07:33:40;23.08;;;13.90;;
40827;SDS011;26549;50.918;5.338;2022-12-05T07:36:07;29.75;;;15.40;;
40827;SDS011;26549;50.918;5.338;2022-12-05T07:38:37;24.42;;;14.65;;
40827;SDS011;26549;50.918;5.338;2022-12-05T07:41:07;26.85;;;14.57;;
40827;SDS011;26549;50.918;5.338;2022-12-05T07:43:46;25.17;;;14.43;;
40827;SDS011;26549;50.918;5.338;2022-12-05T07:46:11;23.00;;;13.90;;
40827;SDS011;26549;50.918;5.338;2022-12-05T07:48:38;26.42;;;14.73;;
40827;SDS011;26549;50.918;5.338;2022-12-05T07:51:04;24.88;;;14.05;;
40827;SDS011;26549;50.918;5.338;2022-12-05T07:53:31;25.50;;;14.35;;
40827;SDS011;26549;50.918;5.338;2022-12-05T07:55:58;25.42;;;15.40;;
40827;SDS011;26549;50.918;5.338;2022-12-05T07:58:26;25.23;;;15.13;;
40827;SDS011;26549;50.918;5.338;2022-12-05T08:00:52;26.20;;;17.67;;
40827;SDS011;26549;50.918;5.338;2022-12-05T08:03:18;22.17;;;14.65;;
40827;SDS011;26549;50.918;5.338;2022-12-05T08:05:44;26.10;;;14.57;;
40827;SDS011;26549;50.918;5.338;2022-12-05T08:08:10;24.60;;;14.73;;
40827;SDS011;26549;50.918;5.338;2022-12-05T08:10:35;28.13;;;15.85;;
40827;SDS011;26549;50.918;5.338;2022-12-05T08:13:01;26.27;;;14.15;;
40827;SDS011;26549;50.918;5.338;2022-12-05T08:15:27;22.23;;;15.27;;
40827;SDS011;26549;50.918;5.338;2022-12-05T08:17:52;31.15;;;15.15;;
40827;SDS011;26549;50.918;5.338;2022-12-05T08:20:18;23.42;;;15.02;;
40827;SDS011;26549;50.918;5.338;2022-12-05T08:22:44;23.30;;;14.40;;
40827;SDS011;26549;50.918;5.338;2022-12-05T08:25:10;26.83;;;14.70;;
40827;SDS011;26549;50.918;5.338;2022-12-05T08:27:35;28.90;;;17.05;;
40827;SDS011;26549;50.918;5.338;2022-12-05T08:30:02;28.00;;;15.88;;
40827;SDS011;26549;50.918;5.338;2022-12-05T08:32:28;25.83;;;14.48;;
40827;SDS011;26549;50.918;5.338;2022-12-05T08:34:54;28.38;;;16.15;;
40827;SDS011;26549;50.918;5.338;2022-12-05T08:37:19;28.13;;;16.65;;
40827;SDS011;26549;50.918;5.338;2022-12-05T08:39:45;25.42;;;13.85;;
40827;SDS011;26549;50.918;5.338;2022-12-05T08:42:12;27.83;;;13.88;;
40827;SDS011;26549;50.918;5.338;2022-12-05T08:44:37;29.00;;;15.65;;
40827;SDS011;26549;50.918;5.338;2022-12-05T08:47:03;26.55;;;15.98;;
40827;SDS011;26549;50.918;5.338;2022-12-05T08:49:29;23.58;;;14.65;;
40827;SDS011;26549;50.918;5.338;2022-12-05T08:51:55;27.25;;;13.93;;
40827;SDS011;26549;50.918;5.338;2022-12-05T08:54:20;27.85;;;14.93;;
40827;SDS011;26549;50.918;5.338;2022-12-05T08:56:48;26.23;;;13.90;;
40827;SDS011;26549;50.918;5.338;2022-12-05T08:59:15;23.55;;;13.57;;
40827;SDS011;26549;50.918;5.338;2022-12-05T09:01:41;26.00;;;16.33;;
40827;SDS011;26549;50.918;5.338;2022-12-05T09:04:07;22.73;;;14.25;;
40827;SDS011;26549;50.918;5.338;2022-12-05T09:06:33;23.35;;;13.90;;
40827;SDS011;26549;50.918;5.338;2022-12-05T09:09:01;23.00;;;15.20;;
40827;SDS011;26549;50.918;5.338;2022-12-05T09:11:31;23.83;;;13.80;;
40827;SDS011;26549;50.918;5.338;2022-12-05T09:13:59;21.63;;;13.95;;
40827;SDS011;26549;50.918;5.338;2022-12-05T09:16:26;22.13;;;13.82;;
40827;SDS011;26549;50.918;5.338;2022-12-05T09:18:54;21.48;;;13.57;;
40827;SDS011;26549;50.918;5.338;2022-12-05T09:21:22;24.08;;;14.45;;
40827;SDS011;26549;50.918;5.338;2022-12-05T09:23:52;24.25;;;14.75;;
40827;SDS011;26549;50.918;5.338;2022-12-05T09:26:19;21.13;;;15.02;;
40827;SDS011;26549;50.918;5.338;2022-12-05T09:28:47;23.27;;;13.68;;
40827;SDS011;26549;50.918;5.338;2022-12-05T09:31:14;21.42;;;13.35;;
40827;SDS011;26549;50.918;5.338;2022-12-05T09:33:45;21.80;;;13.93;;
40827;SDS011;26549;50.918;5.338;2022-12-05T09:36:16;27.25;;;14.25;;
40827;SDS011;26549;50.918;5.338;2022-12-05T09:38:43;19.67;;;12.00;;
40827;SDS011;26549;50.918;5.338;2022-12-05T09:44:22;18.88;;;12.48;;
40827;SDS011;26549;50.918;5.338;2022-12-05T09:47:14;21.95;;;13.85;;
40827;SDS011;26549;50.918;5.338;2022-12-05T09:49:52;22.73;;;13.35;;
40827;SDS011;26549;50.918;5.338;2022-12-05T09:52:35;22.92;;;14.43;;
40827;SDS011;26549;50.918;5.338;2022-12-05T09:55:09;21.15;;;13.43;;
40827;SDS011;26549;50.918;5.338;2022-12-05T09:57:42;20.75;;;13.80;;
40827;SDS011;26549;50.918;5.338;2022-12-05T10:00:13;24.05;;;13.27;;
40827;SDS011;26549;50.918;5.338;2022-12-05T10:05:24;19.23;;;12.07;;
40827;SDS011;26549;50.918;5.338;2022-12-05T10:08:02;19.23;;;12.55;;
40827;SDS011;26549;50.918;5.338;2022-12-05T10:11:17;21.73;;;13.50;;
40827;SDS011;26549;50.918;5.338;2022-12-05T10:15:59;16.58;;;11.88;;
40827;SDS011;26549;50.918;5.338;2022-12-05T10:18:42;21.58;;;12.70;;
40827;SDS011;26549;50.918;5.338;2022-12-05T10:21:22;19.73;;;12.93;;
40827;SDS011;26549;50.918;5.338;2022-12-05T10:24:01;18.35;;;11.75;;
40827;SDS011;26549;50.918;5.338;2022-12-05T10:26:37;17.17;;;11.27;;
40827;SDS011;26549;50.918;5.338;2022-12-05T10:31:47;20.55;;;13.40;;
40827;SDS011;26549;50.918;5.338;2022-12-05T10:37:13;16.63;;;11.23;;
40827;SDS011;26549;50.918;5.338;2022-12-05T10:42:05;18.17;;;12.02;;
40827;SDS011;26549;50.918;5.338;2022-12-05T10:44:37;17.88;;;11.82;;
40827;SDS011;26549;50.918;5.338;2022-12-05T10:47:03;16.48;;;11.70;;
40827;SDS011;26549;50.918;5.338;2022-12-05T10:49:30;18.85;;;10.43;;
40827;SDS011;26549;50.918;5.338;2022-12-05T10:51:57;14.43;;;11.63;;
40827;SDS011;26549;50.918;5.338;2022-12-05T10:54:25;15.60;;;10.55;;
40827;SDS011;26549;50.918;5.338;2022-12-05T10:56:54;18.85;;;12.02;;
40827;SDS011;26549;50.918;5.338;2022-12-05T10:59:22;15.90;;;10.50;;
40827;SDS011;26549;50.918;5.338;2022-12-05T11:01:50;16.60;;;11.20;;
40827;SDS011;26549;50.918;5.338;2022-12-05T11:06:59;16.13;;;10.52;;
40827;SDS011;26549;50.918;5.338;2022-12-05T11:09:33;17.30;;;12.15;;
40827;SDS011;26549;50.918;5.338;2022-12-05T11:12:11;19.52;;;11.50;;
40827;SDS011;26549;50.918;5.338;2022-12-05T11:15:26;15.25;;;10.90;;
40827;SDS011;26549;50.918;5.338;2022-12-05T11:17:43;16.17;;;9.38;;
40827;SDS011;26549;50.918;5.338;2022-12-05T11:22:42;12.32;;;8.75;;
40827;SDS011;26549;50.918;5.338;2022-12-05T11:25:34;14.55;;;10.13;;
40827;SDS011;26549;50.918;5.338;2022-12-05T11:33:36;14.40;;;9.53;;
40827;SDS011;26549;50.918;5.338;2022-12-05T11:36:04;15.45;;;9.73;;
40827;SDS011;26549;50.918;5.338;2022-12-05T11:38:46;14.68;;;9.60;;
40827;SDS011;26549;50.918;5.338;2022-12-05T11:47:15;13.43;;;10.35;;
40827;SDS011;26549;50.918;5.338;2022-12-05T12:00:25;12.73;;;9.40;;
40827;SDS011;26549;50.918;5.338;2022-12-05T12:05:48;14.63;;;9.32;;
40827;SDS011;26549;50.918;5.338;2022-12-05T12:11:40;12.02;;;8.15;;
40827;SDS011;26549;50.918;5.338;2022-12-05T12:14:13;11.73;;;8.45;;
40827;SDS011;26549;50.918;5.338;2022-12-05T12:17:10;12.10;;;9.05;;
40827;SDS011;26549;50.918;5.338;2022-12-05T12:20:19;12.95;;;8.95;;
40827;SDS011;26549;50.918;5.338;2022-12-05T12:23:04;13.30;;;9.13;;
40827;SDS011;26549;50.918;5.338;2022-12-05T12:39:44;16.55;;;9.55;;
40827;SDS011;26549;50.918;5.338;2022-12-05T12:42:19;16.70;;;9.57;;
40827;SDS011;26549;50.918;5.338;2022-12-05T12:47:30;15.68;;;8.77;;
40827;SDS011;26549;50.918;5.338;2022-12-05T12:50:20;11.32;;;8.68;;
40827;SDS011;26549;50.918;5.338;2022-12-05T13:12:33;10.18;;;8.05;;
40827;SDS011;26549;50.918;5.338;2022-12-05T13:15:00;12.13;;;8.70;;
40827;SDS011;26549;50.918;5.338;2022-12-05T13:17:31;10.63;;;8.20;;
40827;SDS011;26549;50.918;5.338;2022-12-05T13:19:58;13.43;;;9.00;;
40827;SDS011;26549;50.918;5.338;2022-12-05T13:22:24;10.55;;;8.82;;
40827;SDS011;26549;50.918;5.338;2022-12-05T13:24:53;12.23;;;8.57;;
40827;SDS011;26549;50.918;5.338;2022-12-05T13:27:20;11.32;;;7.47;;
40827;SDS011;26549;50.918;5.338;2022-12-05T13:29:51;11.15;;;7.85;;
40827;SDS011;26549;50.918;5.338;2022-12-05T13:32:37;11.48;;;7.00;;
40827;SDS011;26549;50.918;5.338;2022-12-05T13:35:08;9.40;;;7.78;;
40827;SDS011;26549;50.918;5.338;2022-12-05T13:41:43;10.65;;;7.95;;
40827;SDS011;26549;50.918;5.338;2022-12-05T13:44:40;11.70;;;7.95;;
40827;SDS011;26549;50.918;5.338;2022-12-05T13:47:16;10.68;;;7.88;;
40827;SDS011;26549;50.918;5.338;2022-12-05T13:50:01;11.15;;;7.95;;
40827;SDS011;26549;50.918;5.338;2022-12-05T13:52:30;10.10;;;7.80;;
40827;SDS011;26549;50.918;5.338;2022-12-05T13:55:17;9.95;;;7.90;;
40827;SDS011;26549;50.918;5.338;2022-12-05T13:57:52;9.93;;;7.45;;
40827;SDS011;26549;50.918;5.338;2022-12-05T14:00:21;9.57;;;8.00;;
40827;SDS011;26549;50.918;5.338;2022-12-05T14:03:04;8.80;;;7.53;;
40827;SDS011;26549;50.918;5.338;2022-12-05T14:05:43;9.02;;;7.15;;
40827;SDS011;26549;50.918;5.338;2022-12-05T14:15:46;8.63;;;7.47;;
40827;SDS011;26549;50.918;5.338;2022-12-05T14:18:17;9.75;;;7.13;;
40827;SDS011;26549;50.918;5.338;2022-12-05T14:26:31;8.95;;;7.60;;
40827;SDS011;26549;50.918;5.338;2022-12-05T14:31:59;9.15;;;6.40;;
40827;SDS011;26549;50.918;5.338;2022-12-05T14:34:54;9.43;;;7.43;;
40827;SDS011;26549;50.918;5.338;2022-12-05T14:37:37;10.73;;;7.43;;
40827;SDS011;26549;50.918;5.338;2022-12-05T14:43:16;9.43;;;7.82;;
40827;SDS011;26549;50.918;5.338;2022-12-05T14:50:56;11.27;;;8.00;;
40827;SDS011;26549;50.918;5.338;2022-12-05T14:53:26;10.90;;;7.35;;
40827;SDS011;26549;50.918;5.338;2022-12-05T15:00:57;10.40;;;7.45;;
40827;SDS011;26549;50.918;5.338;2022-12-05T15:03:33;10.00;;;7.75;;
40827;SDS011;26549;50.918;5.338;2022-12-05T15:06:02;12.85;;;7.93;;
40827;SDS011;26549;50.918;5.338;2022-12-05T15:08:33;10.65;;;8.40;;
40827;SDS011;26549;50.918;5.338;2022-12-05T15:11:10;10.27;;;8.43;;
40827;SDS011;26549;50.918;5.338;2022-12-05T15:13:53;11.18;;;7.93;;
40827;SDS011;26549;50.918;5.338;2022-12-05T15:16:24;11.23;;;8.68;;
40827;SDS011;26549;50.918;5.338;2022-12-05T15:18:55;14.20;;;8.77;;
40827;SDS011;26549;50.918;5.338;2022-12-05T15:21:38;13.40;;;8.25;;
40827;SDS011;26549;50.918;5.338;2022-12-05T15:24:14;11.50;;;8.75;;
40827;SDS011;26549;50.918;5.338;2022-12-05T15:26:45;13.70;;;8.77;;
40827;SDS011;26549;50.918;5.338;2022-12-05T15:34:17;11.93;;;9.00;;
40827;SDS011;26549;50.918;5.338;2022-12-05T15:36:54;12.02;;;9.38;;
40827;SDS011;26549;50.918;5.338;2022-12-05T15:39:25;13.13;;;8.82;;
40827;SDS011;26549;50.918;5.338;2022-12-05T15:41:52;14.48;;;9.75;;
40827;SDS011;26549;50.918;5.338;2022-12-05T15:44:19;11.73;;;8.98;;
40827;SDS011;26549;50.918;5.338;2022-12-05T15:46:50;12.40;;;8.50;;
40827;SDS011;26549;50.918;5.338;2022-12-05T15:49:21;13.57;;;9.00;;
40827;SDS011;26549;50.918;5.338;2022-12-05T15:51:57;14.32;;;10.45;;
40827;SDS011;26549;50.918;5.338;2022-12-05T15:54:31;16.17;;;11.93;;
40827;SDS011;26549;50.918;5.338;2022-12-05T15:57:03;14.75;;;10.07;;
40827;SDS011;26549;50.918;5.338;2022-12-05T15:59:34;14.15;;;10.40;;
40827;SDS011;26549;50.918;5.338;2022-12-05T16:02:14;14.13;;;10.25;;
40827;SDS011;26549;50.918;5.338;2022-12-05T16:04:52;12.73;;;9.80;;
40827;SDS011;26549;50.918;5.338;2022-12-05T16:07:22;11.65;;;9.75;;
40827;SDS011;26549;50.918;5.338;2022-12-05T16:09:54;10.80;;;8.73;;
40827;SDS011;26549;50.918;5.338;2022-12-05T16:12:37;14.05;;;8.80;;
40827;SDS011;26549;50.918;5.338;2022-12-05T16:17:54;12.30;;;8.95;;
40827;SDS011;26549;50.918;5.338;2022-12-05T16:20:29;12.13;;;9.75;;
40827;SDS011;26549;50.918;5.338;2022-12-05T16:23:03;11.03;;;7.90;;
40827;SDS011;26549;50.918;5.338;2022-12-05T16:25:45;13.55;;;9.43;;
40827;SDS011;26549;50.918;5.338;2022-12-05T16:28:14;13.07;;;9.15;;
40827;SDS011;26549;50.918;5.338;2022-12-05T16:30:52;11.43;;;8.38;;
40827;SDS011;26549;50.918;5.338;2022-12-05T16:33:24;12.57;;;8.10;;
40827;SDS011;26549;50.918;5.338;2022-12-05T16:35:51;11.35;;;9.20;;
40827;SDS011;26549;50.918;5.338;2022-12-05T16:38:26;11.57;;;8.73;;
40827;SDS011;26549;50.918;5.338;2022-12-05T16:41:05;13.35;;;9.98;;
40827;SDS011;26549;50.918;5.338;2022-12-05T16:46:07;14.15;;;8.77;;
40827;SDS011;26549;50.918;5.338;2022-12-05T16:49:15;11.82;;;8.70;;
40827;SDS011;26549;50.918;5.338;2022-12-05T16:52:25;12.20;;;8.68;;
40827;SDS011;26549;50.918;5.338;2022-12-05T16:54:46;14.05;;;8.77;;
40827;SDS011;26549;50.918;5.338;2022-12-05T16:57:19;14.18;;;8.88;;
40827;SDS011;26549;50.918;5.338;2022-12-05T16:59:45;13.68;;;9.15;;
40827;SDS011;26549;50.918;5.338;2022-12-05T17:02:14;13.13;;;8.52;;
40827;SDS011;26549;50.918;5.338;2022-12-05T17:04:41;11.98;;;7.97;;
40827;SDS011;26549;50.918;5.338;2022-12-05T17:07:07;10.77;;;9.52;;
40827;SDS011;26549;50.918;5.338;2022-12-05T17:09:33;12.77;;;9.82;;
40827;SDS011;26549;50.918;5.338;2022-12-05T17:12:00;10.82;;;8.10;;
40827;SDS011;26549;50.918;5.338;2022-12-05T17:14:30;12.20;;;8.75;;
40827;SDS011;26549;50.918;5.338;2022-12-05T17:16:55;11.75;;;8.40;;
40827;SDS011;26549;50.918;5.338;2022-12-05T17:19:21;13.13;;;9.68;;
40827;SDS011;26549;50.918;5.338;2022-12-05T17:21:47;11.38;;;9.10;;
40827;SDS011;26549;50.918;5.338;2022-12-05T17:24:14;10.52;;;8.55;;
40827;SDS011;26549;50.918;5.338;2022-12-05T17:26:41;11.57;;;9.23;;
40827;SDS011;26549;50.918;5.338;2022-12-05T17:29:07;13.23;;;8.43;;
40827;SDS011;26549;50.918;5.338;2022-12-05T17:31:34;11.85;;;9.35;;
40827;SDS011;26549;50.918;5.338;2022-12-05T17:34:00;14.75;;;10.38;;
40827;SDS011;26549;50.918;5.338;2022-12-05T17:36:26;13.32;;;9.73;;
40827;SDS011;26549;50.918;5.338;2022-12-05T17:38:52;13.15;;;10.18;;
40827;SDS011;26549;50.918;5.338;2022-12-05T17:41:18;13.23;;;10.48;;